Divide, MT (59727)

08:56 MDT le 31 octobre 2014 (GMT -0600)
Mooney | Change Station
CLOSE
Current Station
Aéroport
Location: Butte,
Altitude: 5545 ft
Stations météo à proximité
Avis météorologiques actifs: Winter Storm Watch

Alt. 5545 ft 45.95 °N, 112.50 °W | Updated 1 hour ago

Partiellement nuageux
Partiellement nuageux
31 ° F
Paraît 28 ° F
N
4
Vent Variable Vent de Variable

Aujourd'hui
Haut(e) -- | Bas -- ° F
--% Risque de précip.
Hier
Haut(e) -- | Bas -- ° F
Precip. -- pouce
8:09 AM 6:18 PM
Premier quartier, 56% visible
Pression 29.96 pouce
Visibilité 10.0 Miles terrestres
Nuages Ciel dégagé
Refroidissement éolien 28 ° F
Point de rosée 27 ° F
Humidité 85%
Précipitations 0.00 pouce
Profondeur de la couche neigeuse Non disponible.
UV 0 sur 12
Pollen 1.20 sur 12
Qualité de l'air Non disponible.
Flu Activity Non disponible.
METAR KBTM 311353Z AUTO VRB03KT 10SM CLR M01/M03 A2995 RMK AO2 SLP144 T10061028

More Conditions Fewer Conditions

Pression 29.96 pouce
Visibilité 10.0 Miles terrestres
Nuages Ciel dégagé
Refroidissement éolien 28 ° F
Point de rosée 27 ° F
Humidité 85%
Précipitations 0.00 pouce
Profondeur de la couche neigeuse Non disponible.
UV 0 sur 12
Pollen 1.20 sur 12
Qualité de l'air Non disponible.
Flu Activity Non disponible.
METAR KBTM 311353Z AUTO VRB03KT 10SM CLR M01/M03 A2995 RMK AO2 SLP144 T10061028

More Conditions Fewer Conditions

10-Day Weather Forecast

Almanac

Astronomie

Oct. 31, 2014 Lever Coucher
Temps réel
Crépuscule civil
Crépuscule nautique
Crépuscule astronomique
Lune
Durée de lumière visible
Longueur du jour
Tomorrow will be .
, % of the Moon is Illuminated

Extrêmes aujourd'hui

State Highs State Lows

Community

WunderPhotos

Upload Photos

1,766,625 Photos téléchargées !

WunderBlogs® & News

Nearby

Qualité de l'air

  Qualité de l'air Indice de la qualité de l'air Polluant
Not available.

Épaisseur de neige

Station Depth Altitude

Activité sismique

Ville Distance Mag. Time & Date
Minimum magnitude displayed is 2.5.

Températures des eaux côtières

Lieu Température

Stations météo à proximité